Time;durP1;ratioP1;P1;durP2;ratioP2;P2;SDS_P1;SDS_P2;PMS_P1;PMS_P2;Temp;Humidity;BMP_temperature;BMP_pressure;BME280_temperature;BME280_humidity;BME280_pressure;Samples;Min_cycle;Max_cycle;Signal;HPM_P1;HPM_P2
2022/04/01 00:00:55;;;;;;;17.43;14.93;;;5.40;84.50;;;3.84;81.74;95919.28;5009565;28;20949;-75
2022/04/01 00:03:22;;;;;;;17.87;13.80;;;5.40;84.50;;;3.72;82.97;95907.75;4998019;28;20508;-75
2022/04/01 00:05:49;;;;;;;18.10;14.30;;;5.30;85.20;;;3.91;82.31;95917.34;4995577;28;20812;-73
2022/04/01 00:08:18;;;;;;;16.03;12.90;;;5.40;84.90;;;3.93;82.51;95915.28;5013850;28;20506;-74
2022/04/01 00:10:46;;;;;;;15.57;13.97;;;5.40;85.20;;;3.91;81.92;95914.69;5016171;28;20848;-75
2022/04/01 00:13:14;;;;;;;15.97;14.27;;;5.40;84.90;;;3.94;82.06;95914.22;5001690;28;20474;-75
2022/04/01 00:15:41;;;;;;;16.07;14.23;;;5.40;84.70;;;3.86;82.88;95906.50;5000739;28;20799;-75
2022/04/01 00:18:10;;;;;;;15.40;13.30;;;5.40;85.20;;;3.96;82.25;95912.16;4998067;28;20489;-74
2022/04/01 00:20:37;;;;;;;14.60;12.73;;;5.40;84.60;;;3.58;81.74;95859.00;4999130;28;20467;-74
2022/04/01 00:23:04;;;;;;;19.63;13.83;;;5.40;84.00;;;3.90;82.56;95901.53;4995668;28;21367;-72
2022/04/01 00:25:31;;;;;;;15.60;14.00;;;5.40;84.80;;;3.87;82.21;95913.50;5001267;28;20544;-75
2022/04/01 00:27:58;;;;;;;15.57;13.20;;;5.40;85.10;;;3.72;82.59;95897.06;4999576;28;20552;-74
2022/04/01 00:30:25;;;;;;;16.33;14.30;;;5.30;84.60;;;3.75;83.12;95893.94;5000499;28;20483;-74
2022/04/01 00:32:52;;;;;;;17.50;15.17;;;5.30;85.50;;;3.74;83.23;95909.13;5001589;28;20471;-74
2022/04/01 00:35:21;;;;;;;19.90;15.60;;;5.30;85.00;;;3.73;82.79;95902.16;5013814;28;20451;-75
2022/04/01 00:37:49;;;;;;;17.50;15.20;;;5.30;84.80;;;3.76;83.34;95900.91;5000368;28;20456;-71
2022/04/01 00:40:16;;;;;;;18.70;14.70;;;5.20;85.60;;;3.73;82.34;95885.31;5001665;28;20466;-74
2022/04/01 00:42:44;;;;;;;19.10;15.33;;;5.30;85.30;;;3.81;82.67;95909.03;5013771;28;20530;-74
2022/04/01 00:45:11;;;;;;;17.43;15.43;;;5.30;85.10;;;3.77;82.69;95897.19;5003239;28;20869;-76
2022/04/01 00:47:38;;;;;;;22.90;15.63;;;5.30;85.60;;;3.84;82.11;95892.56;4999861;28;20714;-73
2022/04/01 00:50:07;;;;;;;20.10;15.80;;;5.30;84.90;;;3.78;82.21;95909.50;4999969;28;20512;-73
2022/04/01 00:52:36;;;;;;;19.40;14.57;;;5.30;84.60;;;3.62;82.72;95890.38;5000064;28;20525;-74
2022/04/01 00:55:08;;;;;;;22.83;17.20;;;5.20;84.80;;;3.27;82.43;95845.59;5010434;28;20511;-74
2022/04/01 00:57:36;;;;;;;20.17;16.40;;;5.20;85.00;;;3.69;82.55;95906.31;5000640;28;20457;-74
2022/04/01 01:00:05;;;;;;;21.30;16.67;;;5.10;85.40;;;3.63;81.94;95889.31;5013051;28;20552;-74
2022/04/01 01:02:32;;;;;;;20.37;15.90;;;5.20;84.40;;;3.69;82.02;95901.78;5001735;28;20476;-73
2022/04/01 01:04:59;;;;;;;19.37;15.37;;;5.20;84.60;;;3.51;83.01;95891.09;4995626;28;20474;-74
2022/04/01 01:07:26;;;;;;;20.17;16.20;;;5.10;84.70;;;3.76;82.29;95896.34;4998960;28;20449;-74
2022/04/01 01:09:54;;;;;;;17.17;15.20;;;5.20;85.00;;;3.74;82.02;95886.94;4996444;28;20864;-73
2022/04/01 01:12:23;;;;;;;20.80;15.70;;;5.20;85.10;;;3.75;82.62;95893.94;4999067;28;20553;-71
2022/04/01 01:14:50;;;;;;;19.80;16.63;;;5.20;84.50;;;3.61;82.98;95895.91;5012848;28;20460;-71
2022/04/01 01:17:17;;;;;;;21.63;16.17;;;5.20;84.80;;;3.65;82.73;95889.91;5013724;28;20730;-73
2022/04/01 01:19:45;;;;;;;22.83;17.07;;;5.10;85.00;;;3.68;82.50;95884.13;4997996;28;20468;-73
2022/04/01 01:22:14;;;;;;;19.93;15.57;;;5.20;85.40;;;3.71;82.88;95887.38;5000260;28;20468;-73
2022/04/01 01:24:44;;;;;;;18.13;15.23;;;5.20;85.00;;;3.59;82.53;95877.47;4994782;28;20965;-74
2022/04/01 01:27:13;;;;;;;20.40;15.90;;;5.10;85.10;;;3.66;82.36;95891.53;4999764;28;21357;-74
2022/04/01 01:29:42;;;;;;;21.13;16.23;;;5.10;85.30;;;3.45;82.02;95873.31;5000692;28;20471;-75
2022/04/01 01:32:19;;;;;;;19.20;14.97;;;5.10;84.50;;;3.59;82.74;95898.84;5003134;28;20554;-73
2022/04/01 01:34:46;;;;;;;19.23;14.80;;;5.10;84.80;;;3.47;82.66;95887.25;5006031;28;20579;-74
2022/04/01 01:37:13;;;;;;;22.37;16.50;;;5.10;84.50;;;3.50;82.31;95892.16;5002034;28;20472;-72
2022/04/01 01:39:41;;;;;;;20.70;16.60;;;5.00;84.60;;;3.48;82.79;95888.88;4995361;28;20454;-71
2022/04/01 01:42:10;;;;;;;25.33;17.40;;;5.00;84.90;;;3.35;83.37;95893.31;5003701;28;20535;-71
2022/04/01 01:44:37;;;;;;;23.30;17.70;;;4.90;84.70;;;3.32;82.82;95880.44;5017629;28;20530;-72
2022/04/01 01:47:05;;;;;;;21.77;17.73;;;4.90;85.10;;;3.39;83.17;95896.38;5013195;28;20517;-74
2022/04/01 01:49:33;;;;;;;23.30;18.80;;;4.90;85.10;;;3.17;83.27;95869.28;5001937;28;20490;-75
2022/04/01 01:54:49;;;;;;;22.43;17.43;;;4.80;86.60;;;3.35;83.24;95896.00;4999490;28;20467;-74
2022/04/01 01:57:20;;;;;;;25.37;18.73;;;4.80;86.90;;;3.29;83.54;95896.88;5014770;28;20464;-75
2022/04/01 01:59:48;;;;;;;24.73;18.77;;;4.80;87.10;;;3.25;85.23;95891.16;5000333;28;20562;-74
2022/04/01 02:02:17;;;;;;;21.90;17.60;;;4.80;88.90;;;2.95;86.11;95880.38;5011426;28;20528;-72
2022/04/01 02:04:45;;;;;;;33.47;18.80;;;4.60;90.10;;;3.03;87.19;95892.59;5004346;28;20455;-72
2022/04/01 02:07:13;;;;;;;24.20;18.03;;;4.60;91.00;;;2.94;88.15;95884.91;5004300;28;20452;-74
2022/04/01 02:09:43;;;;;;;26.67;19.37;;;4.50;91.80;;;2.83;88.05;95883.78;5001096;28;20542;-74
2022/04/01 02:12:11;;;;;;;23.03;17.90;;;4.40;92.00;;;2.74;89.29;95878.94;5003212;28;20515;-76
2022/04/01 02:14:38;;;;;;;28.17;19.13;;;4.30;92.30;;;2.73;89.46;95880.78;5000867;28;20522;-73
2022/04/01 02:17:06;;;;;;;26.30;19.03;;;4.30;93.60;;;2.75;89.59;95878.69;5018856;28;20452;-72
2022/04/01 02:19:33;;;;;;;23.77;17.73;;;4.30;93.50;;;2.68;88.89;95865.41;5006308;28;20469;-74
2022/04/01 02:22:01;;;;;;;23.70;19.80;;;4.30;92.80;;;2.79;88.58;95877.22;5017627;28;20456;-72
2022/04/01 02:24:28;;;;;;;28.80;20.03;;;4.30;93.00;;;2.62;89.69;95884.13;5002003;28;20455;-73
2022/04/01 02:26:56;;;;;;;24.80;18.60;;;4.20;93.00;;;2.74;90.25;95878.94;5000989;28;20463;-74
2022/04/01 02:29:25;;;;;;;25.20;18.93;;;4.20;94.60;;;2.85;89.27;95882.72;5004525;28;20475;-73
2022/04/01 02:31:53;;;;;;;25.90;19.67;;;4.30;93.70;;;2.82;89.30;95881.31;5003174;28;20838;-72
2022/04/01 02:34:23;;;;;;;28.40;20.40;;;4.30;93.50;;;2.78;89.45;95880.13;5000412;28;20551;-76
2022/04/01 02:36:51;;;;;;;25.80;19.90;;;4.30;93.50;;;2.67;89.38;95879.78;5003582;28;20577;-74
2022/04/01 02:39:18;;;;;;;24.03;19.40;;;4.30;93.00;;;2.64;90.26;95880.22;5015190;28;20457;-74
2022/04/01 02:41:46;;;;;;;26.07;19.10;;;4.20;94.10;;;2.53;90.04;95857.75;5004911;28;20506;-72
2022/04/01 02:44:13;;;;;;;24.60;18.90;;;4.20;94.10;;;2.81;89.53;95880.50;5003741;28;20473;-73
2022/04/01 02:46:44;;;;;;;26.07;19.33;;;4.30;94.20;;;2.76;90.07;95888.31;5004323;28;20527;-73
2022/04/01 02:49:15;;;;;;;25.00;19.00;;;4.30;94.70;;;2.72;90.95;95884.47;4998582;28;20452;-72
2022/04/01 02:51:44;;;;;;;29.07;20.70;;;4.30;94.80;;;2.78;91.46;95875.59;5013666;28;20546;-73
2022/04/01 02:54:11;;;;;;;24.30;17.50;;;4.30;97.20;;;2.80;90.15;95884.19;4994216;28;20470;-75
2022/04/01 02:56:40;;;;;;;25.50;18.63;;;4.30;94.10;;;2.72;90.72;95881.81;5000109;28;20468;-73
2022/04/01 02:59:08;;;;;;;24.90;19.23;;;4.30;95.30;;;2.58;91.72;95880.28;5002686;28;20517;-75
2022/04/01 03:01:36;;;;;;;26.40;19.17;;;4.10;96.70;;;2.55;92.58;95881.53;5000464;28;20549;-74
2022/04/01 03:04:09;;;;;;;26.70;19.80;;;4.10;98.50;;;2.43;93.27;95867.25;4999730;28;20471;-72
2022/04/01 03:06:36;;;;;;;28.53;19.90;;;4.00;99.90;;;2.39;93.78;95869.56;5004396;28;21551;-74
2022/04/01 03:09:03;;;;;;;29.07;20.57;;;4.00;99.90;;;2.36;94.41;95878.00;5006751;28;20459;-74
2022/04/01 03:11:30;;;;;;;28.20;18.90;;;4.00;99.90;;;2.36;94.49;95889.44;5007489;28;20545;-72
2022/04/01 03:13:57;;;;;;;29.30;20.20;;;3.90;99.90;;;2.41;94.97;95891.47;5005365;28;20583;-72
2022/04/01 03:16:24;;;;;;;27.40;19.67;;;3.90;99.90;;;2.28;95.47;95895.06;5000468;28;20463;-72
2022/04/01 03:18:57;;;;;;;27.70;19.80;;;3.90;99.90;;;2.28;95.88;95896.88;4999121;28;20507;-73
2022/04/01 03:21:25;;;;;;;31.27;20.53;;;3.80;99.90;;;2.28;95.73;95896.88;5000249;28;20948;-74
2022/04/01 03:23:53;;;;;;;31.47;22.23;;;3.90;99.90;;;2.33;96.48;95894.38;4997901;28;22404;-75
2022/04/01 03:26:21;;;;;;;31.60;21.57;;;3.80;99.90;;;2.41;95.73;95907.47;4998852;28;20958;-74
2022/04/01 03:28:48;;;;;;;30.30;20.93;;;3.90;99.90;;;2.25;95.59;95896.28;5002870;28;20533;-73
2022/04/01 03:31:16;;;;;;;30.83;20.23;;;3.80;99.90;;;2.26;95.55;95900.59;5002231;28;20467;-73
2022/04/01 03:33:43;;;;;;;28.30;21.30;;;3.80;99.90;;;2.07;97.65;95902.31;4998203;28;21017;-74
2022/04/01 03:36:11;;;;;;;33.60;24.00;;;3.60;99.90;;;2.14;97.54;95904.97;4998631;28;21304;-73
2022/04/01 03:38:40;;;;;;;32.40;22.40;;;3.70;99.90;;;2.12;97.77;95909.69;4996064;28;20963;-72
2022/04/01 03:41:08;;;;;;;33.80;24.03;;;3.80;99.90;;;2.03;97.34;95884.31;4999962;28;20459;-73
2022/04/01 03:43:35;;;;;;;33.47;23.40;;;3.70;99.90;;;2.21;97.91;95900.44;5000130;28;20463;-73
2022/04/01 03:46:09;;;;;;;29.10;21.53;;;3.70;99.90;;;2.09;96.61;95904.78;4995851;28;20462;-73
2022/04/01 03:48:42;;;;;;;34.77;23.07;;;3.70;99.90;;;1.77;97.08;95838.97;4992061;28;20995;-72
2022/04/01 03:51:10;;;;;;;34.53;23.53;;;3.70;99.90;;;2.26;97.23;95894.44;4998559;28;20480;-73
2022/04/01 03:53:50;;;;;;;33.80;23.30;;;3.70;99.90;;;2.13;98.50;95900.66;4998296;28;20680;-74
2022/04/01 03:56:22;;;;;;;38.83;23.63;;;3.70;99.90;;;2.08;98.75;95903.97;5001974;28;20459;-73
2022/04/01 03:58:49;;;;;;;34.43;22.53;;;3.60;99.90;;;2.19;97.59;95899.78;5013645;28;20950;-72
2022/04/01 04:01:16;;;;;;;35.67;23.50;;;3.70;99.90;;;2.02;98.09;95902.16;5003782;28;20474;-72
2022/04/01 04:03:50;;;;;;;35.13;23.17;;;3.70;99.90;;;2.09;97.42;95896.81;5003742;28;20479;-73
2022/04/01 04:06:18;;;;;;;31.70;21.30;;;3.70;99.90;;;2.20;97.35;95904.13;5011847;28;20478;-75
2022/04/01 04:08:47;;;;;;;36.30;25.00;;;3.70;99.90;;;2.20;97.60;95905.97;5009417;28;20463;-74
2022/04/01 04:11:18;;;;;;;33.90;21.80;;;3.70;99.90;;;2.03;97.61;95895.81;5021701;28;20483;-76
2022/04/01 04:13:46;;;;;;;36.67;24.53;;;3.70;99.90;;;1.96;99.40;95901.16;4997885;28;20460;-74
2022/04/01 04:16:19;;;;;;;37.00;23.93;;;3.50;99.90;;;2.14;99.09;95906.81;4997325;28;20464;-73
2022/04/01 04:18:53;;;;;;;35.33;23.40;;;3.70;99.90;;;2.03;99.09;95910.94;4998845;28;20837;-73
2022/04/01 04:21:26;;;;;;;39.97;25.20;;;3.60;99.90;;;1.91;99.94;95901.00;4994352;28;20539;-73
2022/04/01 04:23:58;;;;;;;36.77;24.63;;;3.50;99.90;;;2.00;100.00;95908.72;4998844;28;20459;-74
2022/04/01 04:26:31;;;;;;;37.23;24.10;;;3.50;99.90;;;2.17;99.83;95912.53;4995694;28;20460;-73
2022/04/01 04:29:12;;;;;;;41.13;25.63;;;3.60;99.90;;;2.10;99.27;95912.56;4999299;28;20586;-74
2022/04/01 04:31:44;;;;;;;34.17;23.23;;;3.70;99.90;;;1.87;100.00;95917.59;5001139;28;20474;-72
2022/04/01 04:34:13;;;;;;;36.60;23.37;;;3.50;99.90;;;2.07;100.00;95914.84;5002499;28;20466;-74
2022/04/01 04:36:42;;;;;;;33.03;23.80;;;3.60;99.90;;;1.63;100.00;95854.22;4998178;28;20460;-73
2022/04/01 04:39:16;;;;;;;36.10;24.37;;;3.60;99.90;;;2.09;99.31;95918.09;5002689;28;20609;-71
2022/04/01 04:41:44;;;;;;;35.80;23.70;;;3.60;99.90;;;1.85;99.43;95904.47;5008708;28;20459;-71
2022/04/01 04:44:13;;;;;;;33.83;24.17;;;3.50;99.90;;;1.82;99.80;95926.22;5001675;28;21720;-72
2022/04/01 04:46:43;;;;;;;32.73;23.90;;;3.40;99.90;;;1.92;100.00;95929.25;5006715;28;20836;-72
2022/04/01 04:49:11;;;;;;;36.10;22.87;;;3.40;99.90;;;2.03;98.56;95922.44;5006008;28;20525;-71
2022/04/01 04:51:38;;;;;;;29.47;22.60;;;3.60;99.90;;;2.06;99.01;95929.19;5007905;28;20583;-71
2022/04/01 04:54:06;;;;;;;33.33;23.10;;;3.60;99.90;;;2.19;98.33;95937.09;5002083;28;20460;-73
2022/04/01 04:56:35;;;;;;;32.33;22.43;;;3.70;99.90;;;2.06;98.59;95932.66;4999818;28;20468;-71
2022/04/01 04:59:04;;;;;;;28.60;20.80;;;3.60;99.90;;;2.05;98.45;95946.22;4997671;28;20544;-73
2022/04/01 05:01:39;;;;;;;34.37;23.73;;;3.60;99.90;;;2.10;98.26;95943.72;5000788;28;20463;-70
2022/04/01 05:04:33;;;;;;;30.83;21.27;;;3.60;99.90;;;2.09;97.17;95963.41;4996323;28;20459;-70
2022/04/01 05:07:22;;;;;;;29.30;20.37;;;3.60;99.90;;;2.04;96.58;95955.22;5002278;28;20490;-67
2022/04/01 05:09:59;;;;;;;28.37;20.50;;;3.60;99.90;;;1.96;97.01;95965.09;5009703;28;20510;-70
2022/04/01 05:12:36;;;;;;;27.40;19.87;;;3.60;99.90;;;1.97;97.58;95961.41;4992348;28;20482;-77
2022/04/01 05:15:09;;;;;;;31.03;19.50;;;3.60;99.90;;;1.91;96.56;95953.44;4994816;28;20451;-67
2022/04/01 05:17:38;;;;;;;27.20;19.63;;;3.60;99.90;;;1.69;96.94;95949.19;4999447;28;20471;-68
2022/04/01 05:20:15;;;;;;;26.93;19.23;;;3.50;99.90;;;1.83;95.54;95970.47;4994095;28;21030;-69
2022/04/01 05:22:51;;;;;;;23.50;17.03;;;3.40;99.90;;;1.77;95.26;95977.44;4998427;28;20510;-69
2022/04/01 05:25:21;;;;;;;22.93;18.30;;;3.40;99.90;;;1.66;95.78;95983.41;4996131;28;20501;-71
2022/04/01 05:27:53;;;;;;;22.77;16.80;;;3.30;99.90;;;1.57;95.66;95976.69;5000170;28;20557;-81
2022/04/01 05:30:25;;;;;;;24.07;17.87;;;3.20;99.90;;;1.68;95.40;95986.69;4997762;28;20459;-71
2022/04/01 05:33:00;;;;;;;24.10;18.20;;;3.20;99.90;;;1.44;96.55;95980.16;5003022;28;20483;-71
2022/04/01 05:35:29;;;;;;;26.07;19.60;;;3.10;99.90;;;1.64;97.20;95988.94;4999409;28;20956;-70
2022/04/01 05:37:59;;;;;;;26.80;19.40;;;3.20;99.90;;;1.70;97.19;95990.78;4993079;28;20514;-71
2022/04/01 05:40:27;;;;;;;27.53;18.37;;;3.30;99.90;;;1.72;96.56;95992.41;5002515;28;20460;-68
2022/04/01 05:42:57;;;;;;;27.73;19.47;;;3.20;99.90;;;1.51;96.87;95975.66;5014630;28;20860;-70
2022/04/01 05:45:26;;;;;;;29.17;19.70;;;3.20;99.90;;;1.60;97.98;96006.38;4991692;28;20547;-71
2022/04/01 05:47:55;;;;;;;29.83;21.07;;;3.20;99.90;;;1.65;98.37;96011.06;5017904;28;20794;-70
2022/04/01 05:50:23;;;;;;;28.40;19.13;;;3.20;99.90;;;1.69;97.93;96004.31;4995432;28;20444;-70
2022/04/01 05:52:52;;;;;;;30.50;21.87;;;3.30;99.90;;;1.47;97.11;96019.69;4994197;28;20484;-69
2022/04/01 05:55:23;;;;;;;30.70;19.97;;;3.10;99.90;;;1.45;97.79;96011.91;5001842;28;20463;-70
2022/04/01 05:57:51;;;;;;;32.00;22.73;;;3.10;99.90;;;1.52;98.14;96020.72;5001133;28;20475;-73
2022/04/01 06:00:19;;;;;;;28.27;18.73;;;3.10;99.90;;;1.50;97.42;96019.28;5001136;28;20459;-70
2022/04/01 06:03:18;;;;;;;30.70;21.40;;;3.10;99.90;;;1.45;98.17;96022.56;5020674;28;20456;-70
2022/04/01 06:05:49;;;;;;;25.43;18.40;;;3.00;99.90;;;1.35;98.50;96022.97;5003436;28;20911;-72
2022/04/01 06:08:23;;;;;;;28.37;19.00;;;3.00;99.90;;;1.30;97.77;96022.78;5004074;28;20463;-72
2022/04/01 06:11:02;;;;;;;28.50;19.67;;;3.00;99.90;;;1.36;98.07;96019.28;5014628;28;20551;-70
2022/04/01 06:13:45;;;;;;;26.07;17.53;;;2.90;99.90;;;1.16;97.72;95995.34;4997909;28;20574;-73
2022/04/01 06:16:23;;;;;;;30.47;19.03;;;2.90;99.90;;;1.31;97.25;96027.09;5003399;28;21037;-71
2022/04/01 06:19:00;;;;;;;27.53;19.80;;;2.90;99.90;;;1.30;98.00;96029.94;5003736;28;20462;-68
2022/04/01 06:21:28;;;;;;;27.83;19.97;;;2.90;99.90;;;1.28;98.50;96027.47;5013215;28;20456;-70
2022/04/01 06:24:10;;;;;;;29.80;19.13;;;2.90;99.90;;;1.41;98.37;96027.47;5002938;28;20958;-73
2022/04/01 06:26:44;;;;;;;29.83;19.40;;;3.00;99.90;;;1.54;97.81;96037.31;5004535;28;20521;-70
2022/04/01 06:29:31;;;;;;;26.73;18.73;;;3.10;99.90;;;1.42;97.82;96045.06;5015280;28;20993;-71
2022/04/01 06:32:06;;;;;;;27.23;19.33;;;3.00;99.90;;;1.38;98.51;96053.69;5002528;28;20575;-70
2022/04/01 06:35:08;;;;;;;28.83;19.00;;;3.00;99.90;;;1.27;98.02;96042.63;4999329;28;20524;-69
2022/04/01 06:37:43;;;;;;;27.80;17.80;;;2.90;99.90;;;1.34;97.96;96050.63;5008050;28;20790;-74
2022/04/01 06:40:13;;;;;;;26.17;17.87;;;2.90;99.90;;;1.45;98.16;96051.03;5020200;28;20454;-73
2022/04/01 06:42:41;;;;;;;27.10;19.00;;;3.00;99.90;;;1.43;97.77;96045.91;5000153;28;20458;-70
2022/04/01 06:45:10;;;;;;;24.67;16.80;;;3.00;99.90;;;1.36;97.45;96048.56;4995582;28;20474;-71
2022/04/01 06:47:40;;;;;;;26.13;17.70;;;3.00;99.90;;;1.24;98.41;96043.06;4999672;28;20474;-70
2022/04/01 06:50:09;;;;;;;25.20;17.20;;;2.90;99.90;;;1.44;98.62;96057.34;5000926;28;20487;-73
2022/04/01 06:52:37;;;;;;;26.10;19.43;;;3.00;99.90;;;1.27;98.71;96042.63;5004920;28;21247;-74
2022/04/01 06:55:08;;;;;;;26.40;18.83;;;3.00;99.90;;;1.26;97.38;96035.69;4998923;28;20486;-75
2022/04/01 06:57:35;;;;;;;25.87;18.27;;;3.00;99.90;;;1.23;97.12;96057.38;5000549;28;20477;-74
2022/04/01 07:00:04;;;;;;;23.83;17.40;;;2.90;99.90;;;1.27;96.99;96058.59;5001369;28;20542;-70
2022/04/01 07:02:31;;;;;;;28.27;18.80;;;2.90;99.90;;;1.36;97.43;96069.84;5005949;28;20460;-74
2022/04/01 07:05:00;;;;;;;22.47;18.23;;;2.90;99.90;;;1.32;97.41;96065.13;4999646;28;20463;-74
2022/04/01 07:07:28;;;;;;;29.33;18.73;;;2.90;99.90;;;1.26;98.01;96061.44;5000583;28;20835;-73
2022/04/01 07:09:55;;;;;;;26.20;18.10;;;2.90;99.90;;;1.35;98.50;96065.56;5002428;28;20804;-73
2022/04/01 07:12:23;;;;;;;29.40;18.73;;;2.90;99.90;;;1.60;99.26;96059.63;5021975;28;20475;-72
2022/04/01 07:14:51;;;;;;;30.57;19.13;;;3.00;99.90;;;1.63;98.75;96055.69;5002930;28;21167;-71
2022/04/01 07:17:18;;;;;;;24.93;18.27;;;3.10;99.90;;;1.63;98.14;96055.69;5001658;28;20451;-72
2022/04/01 07:19:45;;;;;;;29.53;20.00;;;3.20;99.90;;;1.62;97.12;96065.56;5002141;28;20463;-73
2022/04/01 07:22:13;;;;;;;23.63;16.47;;;3.20;99.90;;;1.47;96.56;96081.72;5005567;28;20543;-75
2022/04/01 07:24:40;;;;;;;24.20;17.67;;;3.20;99.90;;;1.62;97.55;96070.88;5010713;28;20497;-74
2022/04/01 07:27:08;;;;;;;25.33;17.73;;;3.20;99.90;;;1.76;97.61;96060.22;5009629;28;20965;-72
2022/04/01 07:29:35;;;;;;;22.53;17.17;;;3.30;99.90;;;1.73;96.40;96065.94;5005178;28;20461;-73
2022/04/01 07:34:47;;;;;;;26.30;20.13;;;3.30;99.90;;;1.74;97.64;96063.06;5012892;28;20469;-73
2022/04/01 07:37:15;;;;;;;25.00;17.97;;;3.30;99.90;;;1.65;96.35;96075.78;5003006;28;20463;-73
2022/04/01 07:39:42;;;;;;;23.10;17.20;;;3.30;99.90;;;1.60;96.60;96072.94;4999766;28;20472;-72
2022/04/01 07:42:09;;;;;;;21.80;15.93;;;3.20;99.90;;;1.52;96.79;96068.63;5016508;28;20465;-73
2022/04/01 07:44:36;;;;;;;22.50;17.00;;;3.20;99.90;;;1.65;97.28;96075.78;4997745;28;20448;-71
2022/04/01 07:47:09;;;;;;;22.37;15.20;;;3.20;99.90;;;1.63;97.26;96072.50;5001889;28;20466;-71
2022/04/01 07:49:37;;;;;;;21.13;16.00;;;3.20;99.90;;;1.60;96.50;96080.91;4998314;28;20456;-68
2022/04/01 07:52:07;;;;;;;22.07;15.60;;;3.20;99.90;;;1.52;96.29;96087.28;4998221;28;20506;-72
2022/04/01 07:54:37;;;;;;;20.00;15.13;;;3.20;99.90;;;1.53;96.89;96080.91;5005893;28;21036;-70
2022/04/01 07:57:06;;;;;;;22.80;15.77;;;3.20;99.90;;;1.45;96.47;96078.44;4994174;28;21030;-69
2022/04/01 07:59:34;;;;;;;22.27;16.10;;;3.10;99.90;;;1.32;96.45;96065.97;4997991;28;20586;-68
2022/04/01 08:02:01;;;;;;;21.23;14.00;;;3.10;99.90;;;1.23;96.15;96077.84;5000132;28;21303;-71
2022/04/01 08:04:28;;;;;;;20.77;15.73;;;3.00;99.90;;;1.25;96.67;96081.09;4999316;28;20473;-68
2022/04/01 08:06:56;;;;;;;20.73;15.20;;;2.90;99.90;;;1.40;97.76;96089.69;5017463;28;20561;-66
2022/04/01 08:09:24;;;;;;;17.43;13.47;;;3.00;99.90;;;1.33;96.78;96078.25;4997217;28;20535;-68
2022/04/01 08:11:54;;;;;;;20.03;15.80;;;3.00;99.90;;;1.41;97.40;96090.53;5002550;28;20454;-66
2022/04/01 08:14:21;;;;;;;22.20;15.60;;;3.00;99.90;;;1.56;96.99;96087.66;5000959;28;21117;-68
2022/04/01 08:16:49;;;;;;;18.37;14.30;;;3.10;99.90;;;1.74;97.49;96110.16;5004699;28;20455;-69
2022/04/01 08:19:16;;;;;;;22.30;15.93;;;3.30;99.90;;;1.84;97.62;96091.94;4997752;28;20467;-68
2022/04/01 08:21:44;;;;;;;17.10;13.93;;;3.40;99.90;;;1.73;95.27;96095.22;5001870;28;20488;-67
2022/04/01 08:24:12;;;;;;;16.27;12.90;;;3.40;99.90;;;1.72;95.62;96101.56;5000722;28;20477;-68
2022/04/01 08:26:39;;;;;;;16.83;13.57;;;3.30;99.90;;;1.64;95.92;96102.59;4999387;28;20466;-73
2022/04/01 08:29:07;;;;;;;17.10;12.40;;;3.30;99.90;;;1.51;95.02;96104.22;5001511;28;20463;-68
2022/04/01 08:31:35;;;;;;;14.97;12.17;;;3.20;99.60;;;1.44;96.53;96105.25;5016717;28;20565;-69
2022/04/01 08:34:03;;;;;;;14.20;12.43;;;3.10;99.90;;;1.16;95.43;96056.53;4999961;28;20479;-75
2022/04/01 08:36:30;;;;;;;14.47;11.97;;;3.20;99.90;;;1.45;95.72;96101.59;4998232;28;20464;-75
2022/04/01 08:38:57;;;;;;;17.17;12.10;;;3.10;99.90;;;0.99;96.33;96016.25;4997292;28;20561;-71
2022/04/01 08:41:24;;;;;;;15.10;11.83;;;3.20;99.90;;;1.69;95.59;96124.94;5012335;28;20458;-74
2022/04/01 08:43:53;;;;;;;14.07;12.10;;;3.30;99.90;;;1.54;96.21;96111.84;5002437;28;20525;-74
2022/04/01 08:46:24;;;;;;;14.17;11.40;;;3.20;99.90;;;1.56;95.95;96116.94;4998751;28;20541;-74
2022/04/01 08:48:52;;;;;;;15.30;11.60;;;3.20;99.90;;;1.75;95.72;96122.47;5002138;28;20463;-72
2022/04/01 08:51:19;;;;;;;15.77;11.93;;;3.30;99.90;;;1.82;95.35;96128.59;5017225;28;20464;-71
2022/04/01 08:53:46;;;;;;;16.10;12.70;;;3.30;99.90;;;1.87;95.25;96128.78;4999837;28;20564;-79
2022/04/01 08:56:14;;;;;;;14.13;11.60;;;3.40;99.90;;;1.75;96.11;96117.97;5002491;28;20463;-73
2022/04/01 08:58:42;;;;;;;15.10;12.03;;;3.40;99.90;;;1.29;95.56;96015.84;5002317;28;20463;-74
2022/04/01 09:01:09;;;;;;;14.20;12.30;;;3.50;99.90;;;1.86;95.23;96132.50;5005794;28;20497;-73
2022/04/01 09:03:38;;;;;;;11.73;10.07;;;3.50;99.90;;;1.91;95.17;96130.03;4998047;28;20460;-73
2022/04/01 09:06:06;;;;;;;12.53;10.97;;;3.50;99.90;;;2.08;94.58;96116.28;4998700;28;20542;-73
2022/04/01 09:08:37;;;;;;;13.13;11.17;;;3.60;99.90;;;1.97;93.30;96126.53;5008300;28;20471;-73
2022/04/01 09:11:06;;;;;;;10.97;9.17;;;3.60;97.60;;;1.63;92.48;96120.44;5017643;28;20455;-71
2022/04/01 09:13:36;;;;;;;11.83;10.63;;;3.50;94.60;;;1.61;94.87;96135.78;4999882;28;20578;-76
2022/04/01 09:16:04;;;;;;;12.97;9.80;;;3.30;99.70;;;1.63;94.46;96144.41;5002124;28;20550;-80
2022/04/01 09:18:39;;;;;;;11.83;9.33;;;3.20;98.00;;;1.52;94.73;96124.53;4999922;28;21037;-82
2022/04/01 09:21:08;;;;;;;12.00;10.10;;;3.20;99.90;;;1.72;93.92;96146.84;5000561;28;20475;-79
2022/04/01 09:23:35;;;;;;;14.93;10.50;;;3.30;98.00;;;1.76;95.02;96148.09;4995876;28;21192;-82
2022/04/01 09:26:04;;;;;;;12.43;10.37;;;3.30;99.90;;;1.74;94.69;96152.78;5012871;28;20466;-80
2022/04/01 09:28:33;;;;;;;12.80;11.07;;;3.30;99.90;;;1.83;95.36;96151.56;5004379;28;20569;-79
2022/04/01 09:31:06;;;;;;;11.73;9.10;;;3.40;99.90;;;1.74;94.10;96134.13;5002683;28;20500;-78
2022/04/01 09:33:52;;;;;;;11.67;10.10;;;3.40;99.60;;;1.65;94.46;96160.97;5021108;28;20487;-77
2022/04/01 09:36:24;;;;;;;12.20;10.80;;;3.30;97.70;;;1.82;95.80;96164.06;5005996;28;20467;-77
2022/04/01 09:38:55;;;;;;;13.03;10.60;;;3.40;99.90;;;2.11;95.49;96153.16;5004634;28;20495;-71
2022/04/01 09:41:28;;;;;;;12.70;10.30;;;3.50;99.90;;;2.05;93.31;96170.00;5003724;28;21443;-76
2022/04/01 09:44:07;;;;;;;11.37;10.17;;;3.60;97.30;;;2.04;93.08;96168.31;5014524;28;20460;-77
2022/04/01 09:46:36;;;;;;;14.23;12.82;;;3.60;96.10;;;2.16;94.37;96166.69;5004010;28;21763;-76
2022/04/01 09:49:04;;;;;;;11.30;10.20;;;3.70;99.30;;;1.96;92.59;96170.19;5014869;28;20839;-73
2022/04/01 09:51:32;;;;;;;13.10;11.23;;;3.70;95.10;;;1.83;94.51;96141.72;4995427;28;20834;-74
2022/04/01 09:54:03;;;;;;;12.70;11.40;;;3.60;98.70;;;2.37;92.82;96168.28;5000712;28;20795;-75
2022/04/01 09:56:49;;;;;;;13.40;11.17;;;3.80;97.60;;;2.45;92.05;96169.91;5003120;28;20557;-76
2022/04/01 09:59:17;;;;;;;10.77;9.50;;;4.00;96.90;;;2.23;91.93;96175.50;5003254;28;20976;-76
2022/04/01 10:01:45;;;;;;;12.40;11.20;;;3.90;94.30;;;2.23;93.31;96167.50;5001369;28;20458;-76
2022/04/01 10:04:14;;;;;;;11.43;10.27;;;3.80;96.80;;;2.31;92.18;96174.47;4999110;28;20207;-68
2022/04/01 10:06:42;;;;;;;11.30;10.13;;;3.80;96.30;;;2.24;93.70;96169.13;5002564;28;20984;-75
2022/04/01 10:09:12;;;;;;;11.00;9.90;;;3.80;98.30;;;2.16;93.20;96172.00;4998190;28;20507;-73
2022/04/01 10:11:41;;;;;;;11.60;10.50;;;3.70;97.30;;;1.40;93.06;96063.09;4995600;28;20458;-78
2022/04/01 10:14:12;;;;;;;13.07;11.10;;;3.60;96.30;;;2.02;93.10;96165.06;5001045;28;20479;-86
2022/04/01 10:16:44;;;;;;;12.27;11.03;;;3.50;97.70;;;1.80;94.38;96131.47;5000264;28;20485;-75
2022/04/01 10:19:16;;;;;;;13.27;11.57;;;3.60;99.90;;;2.10;94.41;96167.53;5001396;28;20452;-74
2022/04/01 10:21:45;;;;;;;13.10;11.60;;;3.60;99.90;;;0.82;94.40;95947.47;5000278;28;20447;-75
2022/04/01 10:24:23;;;;;;;13.70;12.30;;;3.70;99.90;;;2.28;93.43;96152.72;4993764;28;20538;-72
2022/04/01 10:27:17;;;;;;;12.20;11.00;;;3.80;99.80;;;2.30;92.69;96175.50;5014448;28;20460;-76
2022/04/01 10:29:45;;;;;;;11.40;10.20;;;3.80;97.70;;;2.20;92.26;96165.25;4996328;28;20505;-75
2022/04/01 10:32:28;;;;;;;10.97;9.97;;;3.90;95.40;;;1.69;92.49;96090.31;5018437;28;20456;-75
2022/04/01 10:34:58;;;;;;;10.70;9.67;;;3.80;95.40;;;2.14;92.56;96173.25;4999499;28;20599;-73
2022/04/01 10:37:27;;;;;;;11.60;10.50;;;3.70;94.20;;;2.00;93.77;96145.81;4999871;28;20884;-74